createdAt,value
2022-10-22T00:09:06.663Z,100405.66
2022-10-22T00:19:28.166Z,100409.47
2022-10-22T00:29:49.556Z,100408.63
2022-10-22T00:40:11.334Z,100407.41
2022-10-22T00:50:39.234Z,100426.59
2022-10-22T01:01:00.885Z,100427.03
2022-10-22T01:11:35.786Z,100431.69
2022-10-22T01:22:00.460Z,100439.09
2022-10-22T01:32:23.388Z,100429.44
2022-10-22T01:42:54.360Z,100431.66
2022-10-22T01:53:16.130Z,100436.19
2022-10-22T02:04:00.926Z,100431.44
2022-10-22T02:14:23.519Z,100423.38
2022-10-22T02:24:45.098Z,100429.81
2022-10-22T02:35:07.443Z,100434.03
2022-10-22T02:45:28.914Z,100443.53
2022-10-22T02:55:50.284Z,100434.31
2022-10-22T03:06:11.752Z,100447.84
2022-10-22T03:16:33.168Z,100463.94
2022-10-22T03:26:54.653Z,100471.91
2022-10-22T03:37:16.788Z,100465.94
2022-10-22T03:47:38.552Z,100476.34
2022-10-22T03:58:00.127Z,100480.28
2022-10-22T04:08:21.622Z,100476.47
2022-10-22T04:18:43.788Z,100474.22
2022-10-22T04:29:06.277Z,100468.81
2022-10-22T04:39:27.683Z,100474.09
2022-10-22T04:49:49.038Z,100487.66
2022-10-22T05:00:10.660Z,100498.97
2022-10-22T05:10:32.038Z,100494.56
2022-10-22T05:20:53.439Z,100500.22
2022-10-22T05:31:15.303Z,100506.97
2022-10-22T05:41:36.821Z,100512.28
2022-10-22T05:51:58.163Z,100503.78
2022-10-22T06:02:19.550Z,100503.34
2022-10-22T06:12:41.250Z,100512.94
2022-10-22T06:23:02.772Z,100520.53
2022-10-22T06:33:24.335Z,100535.03
2022-10-22T06:43:46.879Z,100550.69
2022-10-22T06:54:08.431Z,100555.66
2022-10-22T07:04:29.825Z,100567.09
2022-10-22T07:14:51.175Z,100574.44
2022-10-22T07:25:12.558Z,100578.63
2022-10-22T07:35:34.579Z,100596.91
2022-10-22T07:45:56.020Z,100597.94
2022-10-22T07:56:17.731Z,100598.94
2022-10-22T08:06:39.672Z,100614.81
2022-10-22T08:17:01.019Z,100615.78
2022-10-22T08:27:22.504Z,100610.19
2022-10-22T08:37:44.088Z,100625.56
2022-10-22T08:48:32.222Z,100639.47
2022-10-22T08:58:57.022Z,100644.25
2022-10-22T09:09:18.706Z,100643.13
2022-10-22T09:19:46.197Z,100651.19
2022-10-22T09:30:11.319Z,100647.72
2022-10-22T09:40:41.675Z,100643.94
2022-10-22T09:51:06.168Z,100651.97
2022-10-22T10:01:35.455Z,100674.72
2022-10-22T10:12:23.251Z,100674.38
2022-10-22T10:23:04.754Z,100693.69
2022-10-22T10:33:35.401Z,100687.75
2022-10-22T10:44:11.466Z,100703.31
2022-10-22T10:54:36.300Z,100694.44
2022-10-22T11:05:16.553Z,100697.53
2022-10-22T11:15:39.389Z,100714.34
2022-10-22T11:26:01.661Z,100716.28
2022-10-22T11:36:24.049Z,100730.41
2022-10-22T11:46:47.013Z,100731.44
2022-10-22T11:57:28.650Z,100736.09
2022-10-22T12:07:57.041Z,100749.16
2022-10-22T12:18:18.482Z,100746.94
2022-10-22T12:28:40.638Z,100746.56
2022-10-22T12:39:03.212Z,100761.09
2022-10-22T12:49:44.336Z,100756.56
2022-10-22T13:00:19.382Z,100752.22
2022-10-22T13:10:41.690Z,100752.38
2022-10-22T13:21:03.338Z,100753.03
2022-10-22T13:31:29.622Z,100762.66
2022-10-22T13:41:51.191Z,100771.75
2022-10-22T13:52:18.146Z,100774.63
2022-10-22T14:02:40.313Z,100774.06
2022-10-22T14:13:01.949Z,100773.06
2022-10-22T14:23:24.934Z,100773.81
2022-10-22T14:33:46.622Z,100778.56
2022-10-22T14:44:12.574Z,100791.03
2022-10-22T14:54:35.296Z,100793.00
2022-10-22T15:15:21.978Z,100813.47
2022-10-22T15:25:44.538Z,100823.03
2022-10-22T15:36:14.679Z,100819.72
2022-10-22T15:46:36.102Z,100825.28
2022-10-22T15:56:58.029Z,100837.47
2022-10-22T16:07:21.206Z,100850.13
2022-10-22T16:17:45.344Z,100866.94
2022-10-22T16:28:07.192Z,100864.09
2022-10-22T16:38:28.535Z,100875.28
2022-10-22T16:48:51.386Z,100885.53
2022-10-22T16:59:12.799Z,100906.75
2022-10-22T17:09:34.127Z,100904.81
2022-10-22T17:19:55.474Z,100927.19
2022-10-22T17:30:20.789Z,100938.28
2022-10-22T17:40:43.385Z,100950.19
2022-10-22T17:51:12.037Z,100961.81
2022-10-22T18:01:35.578Z,100972.44
2022-10-22T18:11:57.023Z,100973.69
2022-10-22T18:22:18.450Z,100987.50
2022-10-22T18:32:39.814Z,100989.44
2022-10-22T18:43:01.287Z,100988.44
2022-10-22T18:53:22.674Z,100996.59
2022-10-22T19:03:44.594Z,101006.00
2022-10-22T19:14:06.095Z,101013.00
2022-10-22T19:24:27.525Z,101009.34
2022-10-22T19:34:48.900Z,101015.59
2022-10-22T19:45:10.354Z,101022.38
2022-10-22T19:55:31.749Z,101027.69
2022-10-22T20:05:53.171Z,101025.06
2022-10-22T20:16:15.580Z,101034.16
2022-10-22T20:26:36.940Z,101036.03
2022-10-22T20:36:58.285Z,101051.69
2022-10-22T20:47:19.626Z,101054.94
2022-10-22T20:57:41.626Z,101046.97
2022-10-22T21:08:04.881Z,101048.19
2022-10-22T21:18:26.939Z,101047.94
2022-10-22T21:28:48.453Z,101045.16
2022-10-22T21:39:09.903Z,101043.28
2022-10-22T21:49:31.363Z,101047.22
2022-10-22T21:59:52.722Z,101046.66
2022-10-22T22:10:14.096Z,101048.94
2022-10-22T22:20:36.669Z,101045.19
2022-10-22T22:30:58.336Z,101052.31
2022-10-22T22:41:19.674Z,101049.59
2022-10-22T22:51:41.167Z,101049.13
2022-10-22T23:02:02.543Z,101058.91
2022-10-22T23:12:23.974Z,101063.09
2022-10-22T23:22:45.315Z,101053.59
2022-10-22T23:33:06.669Z,101047.28
2022-10-22T23:43:28.680Z,101050.63
2022-10-22T23:53:54.421Z,101050.63
